Main page
METAR-TAF:

METAR-TAF

Airports :

Pohnpei International Airport

Pohnpei, Micronesia

latitude: 06-59N, longitude: 158-12E, elevation: 2 m

Current weather observation

The report was made 46 minutes ago, at 03:50 UTC
Wind 6 kt from the Northwest
Temperature 30°C
Humidity 79%
Pressure 1008 hPa
Visibility: 24.1 km
Broken clouds at a height of 1800 ft, Towering cumulus.
Broken clouds at a height of 13000 ft
Overcast at a height of 30000 ft

METAR: PTPN 160350Z 32006KT 15SM BKN018TCU BKN130 OVC300 30/26 A2977 RMK TCU ALQDS

Time: 15:36 (04:36 UTC)

Forecast

The report was made 1 hour and 41 minutes ago, at 02:55 UTC
Forecast valid from 16 at 03 UTC to 16 at 24 UTC
Wind 10 kt from the North/Northwest
Visibility: 10 km
Scattered clouds at a height of 1800 ft
Broken clouds at a height of 13000 ft
showers in vicinity
Temporary
from 16 at 06 UTC to 16 at 09 UTC
Visibility: 6.4 km
Overcast at a height of 1800 ft
rain showers

TAF: PTPN 160255Z 1603/1624 33010KT P6SM VCSH SCT018 BKN130 TEMPO 1606/1609 4SM SHRA OVC018

Weather observations and forecasts of more than 4000 airports (METAR and TAF reports).

The available stations are represented by yellow and red dots on the map.

Hover mouse over dot to see the name of the station.

Then click to see weather observations and forecasts.

To change the map : click on the green buttons with a black cross to zoom in, on the green button with a dash to zoom out, or on the green arrows for adjacent maps.


METAR-TAF: